Time,TemperatureF,DewpointF,PressureIn,WindDirection,WindDirectionDegrees,WindSpeedMPH,WindSpeedGustMPH,Humidity,HourlyPrecipIn,Conditions,Clouds,dailyrainin,SoftwareType,DateUTC
2013-12-09 00:00:00,26.4,25.9,30.05,SE,135,0.0,-999.0,98,-99.99,,,0.00,Acu-Link.com,2013-12-09 05:00:00,
2013-12-09 00:16:00,26.4,25.9,30.04,South,180,0.0,-999.0,98,-99.99,,,0.00,Acu-Link.com,2013-12-09 05:16:00,
2013-12-09 00:31:00,26.8,26.3,30.04,NE,45,0.0,-999.0,98,-99.99,,,0.00,Acu-Link.com,2013-12-09 05:31:00,
2013-12-09 00:47:00,27.5,27.0,30.02,ESE,112,2.7,-999.0,98,-99.99,,,0.00,Acu-Link.com,2013-12-09 05:47:00,
2013-12-09 01:02:00,28.4,27.9,30.01,East,90,1.1,-999.0,98,-99.99,,,0.00,Acu-Link.com,2013-12-09 06:02:00,
2013-12-09 01:17:00,28.9,28.4,29.99,NE,45,0.0,-999.0,98,-99.99,,,0.00,Acu-Link.com,2013-12-09 06:17:00,
2013-12-09 01:33:00,29.1,28.6,29.99,East,90,0.0,-999.0,98,-99.99,,,0.00,Acu-Link.com,2013-12-09 06:33:00,
2013-12-09 01:48:00,29.3,28.8,29.98,SSW,202,0.0,-999.0,98,-99.99,,,0.00,Acu-Link.com,2013-12-09 06:48:00,
2013-12-09 02:04:00,29.5,29.0,29.98,North,0,0.0,-999.0,98,-99.99,,,0.00,Acu-Link.com,2013-12-09 07:04:00,
2013-12-09 02:19:00,29.5,29.0,29.98,NW,315,1.1,-999.0,98,-99.99,,,0.00,Acu-Link.com,2013-12-09 07:19:00,
2013-12-09 02:34:00,29.7,29.2,29.97,West,270,0.0,-999.0,98,-99.99,,,0.00,Acu-Link.com,2013-12-09 07:34:00,
2013-12-09 02:50:00,30.2,29.7,29.97,NW,315,1.1,-999.0,98,-99.99,,,0.00,Acu-Link.com,2013-12-09 07:50:00,
2013-12-09 03:05:00,30.4,29.9,29.96,WNW,292,0.0,-999.0,98,-99.99,,,0.00,Acu-Link.com,2013-12-09 08:05:00,
2013-12-09 03:20:00,30.6,30.1,29.95,SSW,202,0.0,-999.0,98,-99.99,,,0.00,Acu-Link.com,2013-12-09 08:20:00,
2013-12-09 03:35:00,30.9,30.4,29.95,South,180,0.0,-999.0,98,-99.99,,,0.00,Acu-Link.com,2013-12-09 08:35:00,
2013-12-09 03:51:00,30.9,30.4,29.94,SSE,157,0.0,-999.0,98,-99.99,,,0.00,Acu-Link.com,2013-12-09 08:51:00,
2013-12-09 04:06:00,30.9,30.4,29.94,SE,135,0.0,-999.0,98,-99.99,,,0.00,Acu-Link.com,2013-12-09 09:06:00,
2013-12-09 04:22:00,30.9,30.4,29.92,ESE,112,0.0,-999.0,98,-99.99,,,0.00,Acu-Link.com,2013-12-09 09:22:00,
2013-12-09 04:37:00,30.9,30.4,29.93,SSW,202,1.1,-999.0,98,-99.99,,,0.00,Acu-Link.com,2013-12-09 09:37:00,
2013-12-09 04:52:00,31.1,30.6,29.94,WSW,247,0.0,-999.0,98,-99.99,,,0.00,Acu-Link.com,2013-12-09 09:52:00,
2013-12-09 05:08:00,31.3,30.8,29.92,ESE,112,3.7,-999.0,98,-99.99,,,0.00,Acu-Link.com,2013-12-09 10:08:00,
2013-12-09 05:23:00,31.5,31.0,29.93,SE,135,1.7,-999.0,98,-99.99,,,0.00,Acu-Link.com,2013-12-09 10:23:00,
2013-12-09 05:38:00,31.5,31.0,29.92,SE,135,0.0,-999.0,98,-99.99,,,0.00,Acu-Link.com,2013-12-09 10:38:00,
2013-12-09 05:53:00,31.6,31.1,29.91,SE,135,0.0,-999.0,98,-99.99,,,0.00,Acu-Link.com,2013-12-09 10:53:00,
2013-12-09 06:08:00,31.6,31.1,29.90,ESE,112,0.0,-999.0,98,-99.99,,,0.00,Acu-Link.com,2013-12-09 11:08:00,
2013-12-09 06:24:00,31.6,31.1,29.90,WSW,247,0.0,-999.0,98,-99.99,,,0.00,Acu-Link.com,2013-12-09 11:24:00,
2013-12-09 06:39:00,31.6,31.1,29.90,SE,135,0.0,-999.0,98,-99.99,,,0.00,Acu-Link.com,2013-12-09 11:39:00,
2013-12-09 06:55:00,31.8,31.3,29.91,West,270,0.0,-999.0,98,-99.99,,,0.00,Acu-Link.com,2013-12-09 11:55:00,
2013-12-09 07:10:00,31.8,31.3,29.90,NNW,337,0.0,-999.0,98,-99.99,,,0.00,Acu-Link.com,2013-12-09 12:10:00,
2013-12-09 07:26:00,31.8,31.3,29.91,WSW,247,0.0,-999.0,98,-99.99,,,0.00,Acu-Link.com,2013-12-09 12:26:00,
2013-12-09 07:41:00,31.8,31.3,29.91,WSW,247,0.0,-999.0,98,-99.99,,,0.00,Acu-Link.com,2013-12-09 12:41:00,
2013-12-09 07:58:00,32.2,31.7,29.90,SSE,157,0.0,-999.0,98,-99.99,,,0.00,Acu-Link.com,2013-12-09 12:58:00,
2013-12-09 08:14:00,32.5,32.0,29.90,SSE,157,0.0,-999.0,98,-99.99,,,0.00,Acu-Link.com,2013-12-09 13:14:00,
2013-12-09 08:29:00,32.9,32.4,29.89,South,180,0.0,-999.0,98,-99.99,,,0.00,Acu-Link.com,2013-12-09 13:29:00,
2013-12-09 08:45:00,33.4,32.9,29.89,North,0,0.0,-999.0,98,-99.99,,,0.00,Acu-Link.com,2013-12-09 13:45:00,
2013-12-09 09:00:00,34.0,33.5,29.89,West,270,0.0,-999.0,98,-99.99,,,0.00,Acu-Link.com,2013-12-09 14:00:00,
2013-12-09 09:30:00,34.9,34.4,29.88,NE,45,0.0,-999.0,98,-99.99,,,0.00,Acu-Link.com,2013-12-09 14:30:00,
2013-12-09 09:46:00,35.2,34.7,29.88,ESE,112,0.0,-999.0,98,-99.99,,,0.00,Acu-Link.com,2013-12-09 14:46:00,
2013-12-09 10:01:00,35.1,34.6,29.88,NW,315,0.0,-999.0,98,-99.99,,,0.00,Acu-Link.com,2013-12-09 15:01:00,
2013-12-09 10:16:00,35.1,34.6,29.89,ESE,112,1.7,-999.0,98,-99.99,,,0.00,Acu-Link.com,2013-12-09 15:16:00,
2013-12-09 10:31:00,36.0,35.5,29.88,SSE,157,0.0,-999.0,98,-99.99,,,0.00,Acu-Link.com,2013-12-09 15:31:00,
2013-12-09 10:47:00,35.8,35.3,29.89,NW,315,1.7,-999.0,98,-99.99,,,0.00,Acu-Link.com,2013-12-09 15:47:00,
2013-12-09 11:02:00,35.8,35.3,29.88,SE,135,0.0,-999.0,98,-99.99,,,0.00,Acu-Link.com,2013-12-09 16:02:00,
2013-12-09 11:18:00,36.3,35.8,29.87,WSW,247,0.0,-999.0,98,-99.99,,,0.00,Acu-Link.com,2013-12-09 16:18:00,
2013-12-09 11:33:00,37.6,37.1,29.87,West,270,0.0,-999.0,98,-99.99,,,0.00,Acu-Link.com,2013-12-09 16:33:00,
2013-12-09 11:49:00,37.8,37.3,29.87,WSW,247,0.0,-999.0,98,-99.99,,,0.00,Acu-Link.com,2013-12-09 16:49:00,
2013-12-09 12:04:00,37.6,37.1,29.87,WSW,247,0.0,-999.0,98,-99.99,,,0.00,Acu-Link.com,2013-12-09 17:04:00,
2013-12-09 12:23:00,37.6,37.1,29.87,NNW,337,3.2,-999.0,98,-99.99,,,0.02,Acu-Link.com,2013-12-09 17:23:00,
2013-12-09 12:38:00,38.8,38.3,29.87,West,270,6.3,-999.0,98,-99.99,,,0.05,Acu-Link.com,2013-12-09 17:38:00,
2013-12-09 12:54:00,38.5,38.0,29.87,WSW,247,8.3,-999.0,98,-99.99,,,0.08,Acu-Link.com,2013-12-09 17:54:00,
2013-12-09 13:09:00,37.8,37.3,29.88,South,180,4.2,-999.0,98,-99.99,,,0.10,Acu-Link.com,2013-12-09 18:09:00,
2013-12-09 13:24:00,38.5,38.0,29.87,NW,315,5.3,-999.0,98,-99.99,,,0.14,Acu-Link.com,2013-12-09 18:24:00,
2013-12-09 13:40:00,37.9,37.4,29.88,West,270,10.4,-999.0,98,-99.99,,,0.21,Acu-Link.com,2013-12-09 18:40:00,
2013-12-09 13:55:00,37.9,37.4,29.87,NNW,337,2.2,-999.0,98,-99.99,,,0.24,Acu-Link.com,2013-12-09 18:55:00,
2013-12-09 14:10:00,37.4,36.9,29.87,WSW,247,2.7,-999.0,98,-99.99,,,0.28,Acu-Link.com,2013-12-09 19:10:00,
2013-12-09 14:26:00,37.6,37.1,29.87,NE,45,1.7,-999.0,98,-99.99,,,0.30,Acu-Link.com,2013-12-09 19:26:00,
2013-12-09 14:41:00,37.4,36.9,29.87,West,270,2.7,-999.0,98,-99.99,,,0.34,Acu-Link.com,2013-12-09 19:41:00,
2013-12-09 14:56:00,37.2,36.7,29.88,ESE,112,10.9,-999.0,98,-99.99,,,0.35,Acu-Link.com,2013-12-09 19:56:00,
2013-12-09 15:12:00,37.4,36.9,29.88,ESE,112,4.7,-999.0,98,-99.99,,,0.36,Acu-Link.com,2013-12-09 20:12:00,
2013-12-09 15:27:00,37.2,36.7,29.89,WNW,292,4.7,-999.0,98,-99.99,,,0.38,Acu-Link.com,2013-12-09 20:27:00,
2013-12-09 15:42:00,36.9,36.4,29.89,NW,315,1.7,-999.0,98,-99.99,,,0.39,Acu-Link.com,2013-12-09 20:42:00,
2013-12-09 15:58:00,36.3,35.8,29.89,SE,135,2.2,-999.0,98,-99.99,,,0.39,Acu-Link.com,2013-12-09 20:58:00,
2013-12-09 16:13:00,36.3,35.8,29.90,NNW,337,1.1,-999.0,98,-99.99,,,0.39,Acu-Link.com,2013-12-09 21:13:00,
2013-12-09 16:28:00,35.8,35.3,29.91,North,0,3.7,-999.0,98,-99.99,,,0.40,Acu-Link.com,2013-12-09 21:28:00,
2013-12-09 16:44:00,35.4,34.9,29.91,West,270,6.3,-999.0,98,-99.99,,,0.41,Acu-Link.com,2013-12-09 21:44:00,
2013-12-09 16:59:00,35.1,34.6,29.92,West,270,2.2,-999.0,98,-99.99,,,0.41,Acu-Link.com,2013-12-09 21:59:00,
2013-12-09 17:14:00,34.9,34.4,29.93,SSW,202,2.2,-999.0,98,-99.99,,,0.41,Acu-Link.com,2013-12-09 22:14:00,
2013-12-09 17:29:00,34.7,34.2,29.94,West,270,2.7,-999.0,98,-99.99,,,0.41,Acu-Link.com,2013-12-09 22:29:00,
2013-12-09 17:44:00,34.7,34.2,29.94,SE,135,9.9,-999.0,98,-99.99,,,0.41,Acu-Link.com,2013-12-09 22:44:00,
2013-12-09 18:00:00,34.5,34.0,29.95,WNW,292,5.3,-999.0,98,-99.99,,,0.41,Acu-Link.com,2013-12-09 23:00:00,
2013-12-09 18:15:00,34.3,33.8,29.94,SSE,157,4.2,-999.0,98,-99.99,,,0.42,Acu-Link.com,2013-12-09 23:15:00,
2013-12-09 18:31:00,34.2,33.7,29.95,ESE,112,8.3,-999.0,98,-99.99,,,0.42,Acu-Link.com,2013-12-09 23:31:00,
2013-12-09 18:46:00,34.2,33.7,29.95,SSE,157,13.0,-999.0,98,-99.99,,,0.42,Acu-Link.com,2013-12-09 23:46:00,
2013-12-09 19:02:00,34.0,33.5,29.96,WSW,247,7.8,-999.0,98,-99.99,,,0.42,Acu-Link.com,2013-12-10 00:02:00,
2013-12-09 19:17:00,34.0,33.5,29.95,ENE,67,2.2,-999.0,98,-99.99,,,0.42,Acu-Link.com,2013-12-10 00:17:00,
2013-12-09 19:32:00,33.8,33.3,29.95,WNW,292,7.3,-999.0,98,-99.99,,,0.42,Acu-Link.com,2013-12-10 00:32:00,
2013-12-09 19:47:00,33.6,33.1,29.94,West,270,6.3,-999.0,98,-99.99,,,0.42,Acu-Link.com,2013-12-10 00:47:00,
2013-12-09 20:02:00,33.3,32.8,29.95,NNW,337,5.3,-999.0,98,-99.99,,,0.42,Acu-Link.com,2013-12-10 01:02:00,
2013-12-09 20:17:00,32.9,32.4,29.95,SW,225,3.2,-999.0,98,-99.99,,,0.42,Acu-Link.com,2013-12-10 01:17:00,
2013-12-09 20:32:00,32.9,32.4,29.95,SSW,202,6.8,-999.0,98,-99.99,,,0.42,Acu-Link.com,2013-12-10 01:32:00,
2013-12-09 20:48:00,32.7,32.2,29.96,SSW,202,3.7,-999.0,98,-99.99,,,0.42,Acu-Link.com,2013-12-10 01:48:00,
2013-12-09 21:04:00,32.5,32.0,29.95,West,270,2.7,-999.0,98,-99.99,,,0.42,Acu-Link.com,2013-12-10 02:04:00,
2013-12-09 21:19:00,32.4,31.9,29.95,WNW,292,7.8,-999.0,98,-99.99,,,0.42,Acu-Link.com,2013-12-10 02:19:00,
2013-12-09 21:38:00,32.2,31.7,29.95,NNW,337,7.3,-999.0,98,-99.99,,,0.42,Acu-Link.com,2013-12-10 02:38:00,
2013-12-09 21:53:00,32.0,31.5,29.95,WSW,247,6.8,-999.0,98,-99.99,,,0.42,Acu-Link.com,2013-12-10 02:53:00,
2013-12-09 22:08:00,31.8,31.3,29.94,WNW,292,7.8,-999.0,98,-99.99,,,0.42,Acu-Link.com,2013-12-10 03:08:00,
2013-12-09 22:24:00,31.6,31.1,29.95,WSW,247,5.8,-999.0,98,-99.99,,,0.42,Acu-Link.com,2013-12-10 03:24:00,
2013-12-09 22:40:00,31.6,31.1,29.95,West,270,7.3,-999.0,98,-99.99,,,0.42,Acu-Link.com,2013-12-10 03:40:00,
2013-12-09 22:56:00,31.3,30.8,29.95,NW,315,4.2,-999.0,98,-99.99,,,0.42,Acu-Link.com,2013-12-10 03:56:00,
2013-12-09 23:11:00,31.1,30.6,29.94,West,270,6.8,-999.0,98,-99.99,,,0.42,Acu-Link.com,2013-12-10 04:11:00,
2013-12-09 23:28:00,30.9,30.4,29.93,WNW,292,3.7,-999.0,98,-99.99,,,0.42,Acu-Link.com,2013-12-10 04:28:00,
2013-12-09 23:44:00,30.7,30.2,29.93,South,180,8.9,-999.0,98,-99.99,,,0.42,Acu-Link.com,2013-12-10 04:44:00,
2013-12-09 23:59:00,30.4,29.9,29.92,NW,315,6.3,-999.0,98,-99.99,,,0.42,Acu-Link.com,2013-12-10 04:59:00,